Terminal Aerodrome Forecast
Issued by NWS

Home | Current Version | Previous Version | Text Only | Print | Product List | Glossary On
Versions: 1 2 3 4 5 6 7 8 9 10 11 12
000
FTUS46 KHNX 311120
TAFVIS
TAF
KVIS 311120Z 3112/0112 10005KT P6SM FEW120 SCT200
     FM312100 17006KT P6SM SCT030 BKN050 OVC100
      TEMPO 3121/0101 -TSRA BKN030CB
     FM010100 19010KT 4SM -TSRA SCT015 OVC030CB
     FM010500 20009KT 4SM -RA BKN020=

USA.gov is the U.S. government's official web portal to all federal, state and local government web resources and services.